sensor_id;sensor_type;location;lat;lon;timestamp;temperature;humidity
21682;DHT22;11002;48.256;10.084;2022-09-09T00:02:16;19.90;48.10
21682;DHT22;11002;48.256;10.084;2022-09-09T00:04:52;19.90;48.10
21682;DHT22;11002;48.256;10.084;2022-09-09T00:07:25;19.90;48.10
21682;DHT22;11002;48.256;10.084;2022-09-09T00:10:03;19.90;48.10
21682;DHT22;11002;48.256;10.084;2022-09-09T00:12:38;19.90;48.10
21682;DHT22;11002;48.256;10.084;2022-09-09T00:15:13;19.90;48.10
21682;DHT22;11002;48.256;10.084;2022-09-09T00:17:45;19.90;48.10
21682;DHT22;11002;48.256;10.084;2022-09-09T00:20:19;19.90;48.20
21682;DHT22;11002;48.256;10.084;2022-09-09T00:22:59;19.90;48.10
21682;DHT22;11002;48.256;10.084;2022-09-09T00:25:31;19.90;48.10
21682;DHT22;11002;48.256;10.084;2022-09-09T00:28:00;19.90;48.10
21682;DHT22;11002;48.256;10.084;2022-09-09T00:30:32;19.90;48.20
21682;DHT22;11002;48.256;10.084;2022-09-09T00:33:08;19.90;48.10
21682;DHT22;11002;48.256;10.084;2022-09-09T00:35:40;19.90;48.20
21682;DHT22;11002;48.256;10.084;2022-09-09T00:38:13;19.90;48.10
21682;DHT22;11002;48.256;10.084;2022-09-09T00:40:48;19.90;48.10
21682;DHT22;11002;48.256;10.084;2022-09-09T00:43:26;19.90;48.10
21682;DHT22;11002;48.256;10.084;2022-09-09T00:48:57;19.90;48.20
21682;DHT22;11002;48.256;10.084;2022-09-09T00:51:35;19.90;48.10
21682;DHT22;11002;48.256;10.084;2022-09-09T00:54:26;19.90;48.10
21682;DHT22;11002;48.256;10.084;2022-09-09T00:57:04;19.90;48.10
21682;DHT22;11002;48.256;10.084;2022-09-09T00:59:44;19.90;48.00
21682;DHT22;11002;48.256;10.084;2022-09-09T01:02:21;19.90;48.10
21682;DHT22;11002;48.256;10.084;2022-09-09T01:04:52;19.80;48.10
21682;DHT22;11002;48.256;10.084;2022-09-09T01:07:21;19.90;48.10
21682;DHT22;11002;48.256;10.084;2022-09-09T01:09:53;19.80;48.10
21682;DHT22;11002;48.256;10.084;2022-09-09T01:12:29;19.80;48.00
21682;DHT22;11002;48.256;10.084;2022-09-09T01:15:05;19.80;48.10
21682;DHT22;11002;48.256;10.084;2022-09-09T01:17:49;19.80;48.00
21682;DHT22;11002;48.256;10.084;2022-09-09T01:20:21;19.80;48.10
21682;DHT22;11002;48.256;10.084;2022-09-09T01:23:16;19.80;48.00
21682;DHT22;11002;48.256;10.084;2022-09-09T01:26:15;19.80;48.10
21682;DHT22;11002;48.256;10.084;2022-09-09T01:28:45;19.80;48.00
21682;DHT22;11002;48.256;10.084;2022-09-09T01:31:18;19.90;48.10
21682;DHT22;11002;48.256;10.084;2022-09-09T01:33:47;19.80;47.80
21682;DHT22;11002;48.256;10.084;2022-09-09T01:36:19;19.80;47.90
21682;DHT22;11002;48.256;10.084;2022-09-09T01:38:51;19.90;48.00
21682;DHT22;11002;48.256;10.084;2022-09-09T01:41:20;19.80;47.80
21682;DHT22;11002;48.256;10.084;2022-09-09T01:44:11;19.80;48.00
21682;DHT22;11002;48.256;10.084;2022-09-09T01:46:42;19.80;47.90
21682;DHT22;11002;48.256;10.084;2022-09-09T01:49:16;19.80;48.00
21682;DHT22;11002;48.256;10.084;2022-09-09T01:51:48;19.80;48.00
21682;DHT22;11002;48.256;10.084;2022-09-09T01:54:18;19.80;47.90
21682;DHT22;11002;48.256;10.084;2022-09-09T01:56:56;19.80;47.70
21682;DHT22;11002;48.256;10.084;2022-09-09T01:59:40;19.80;47.80
21682;DHT22;11002;48.256;10.084;2022-09-09T02:02:12;19.80;47.90
21682;DHT22;11002;48.256;10.084;2022-09-09T02:04:49;19.80;47.80
21682;DHT22;11002;48.256;10.084;2022-09-09T02:07:37;19.80;47.80
21682;DHT22;11002;48.256;10.084;2022-09-09T02:10:12;19.80;47.80
21682;DHT22;11002;48.256;10.084;2022-09-09T02:12:54;19.80;47.70
21682;DHT22;11002;48.256;10.084;2022-09-09T02:15:28;19.80;47.70
21682;DHT22;11002;48.256;10.084;2022-09-09T02:17:58;19.80;47.70
21682;DHT22;11002;48.256;10.084;2022-09-09T02:20:29;19.80;47.80
21682;DHT22;11002;48.256;10.084;2022-09-09T02:23:01;19.80;47.70
21682;DHT22;11002;48.256;10.084;2022-09-09T02:25:29;19.80;47.80
21682;DHT22;11002;48.256;10.084;2022-09-09T02:28:14;19.80;47.60
21682;DHT22;11002;48.256;10.084;2022-09-09T02:30:44;19.80;47.60
21682;DHT22;11002;48.256;10.084;2022-09-09T02:33:15;19.80;47.60
21682;DHT22;11002;48.256;10.084;2022-09-09T02:35:50;19.80;47.60
21682;DHT22;11002;48.256;10.084;2022-09-09T02:38:22;19.80;47.60
21682;DHT22;11002;48.256;10.084;2022-09-09T02:40:59;19.80;47.70
21682;DHT22;11002;48.256;10.084;2022-09-09T02:43:32;19.80;47.60
21682;DHT22;11002;48.256;10.084;2022-09-09T02:46:08;19.80;47.60
21682;DHT22;11002;48.256;10.084;2022-09-09T02:48:47;19.80;47.60
21682;DHT22;11002;48.256;10.084;2022-09-09T02:51:26;19.80;47.60
21682;DHT22;11002;48.256;10.084;2022-09-09T02:54:02;19.80;47.50
21682;DHT22;11002;48.256;10.084;2022-09-09T02:56:33;19.80;47.60
21682;DHT22;11002;48.256;10.084;2022-09-09T02:59:04;19.80;47.50
21682;DHT22;11002;48.256;10.084;2022-09-09T03:01:34;19.80;47.60
21682;DHT22;11002;48.256;10.084;2022-09-09T03:04:03;19.80;47.50
21682;DHT22;11002;48.256;10.084;2022-09-09T03:06:31;19.80;47.40
21682;DHT22;11002;48.256;10.084;2022-09-09T03:09:07;19.80;47.40
21682;DHT22;11002;48.256;10.084;2022-09-09T03:11:37;19.80;47.50
21682;DHT22;11002;48.256;10.084;2022-09-09T03:14:07;19.80;47.50
21682;DHT22;11002;48.256;10.084;2022-09-09T03:16:37;19.80;47.50
21682;DHT22;11002;48.256;10.084;2022-09-09T03:19:05;19.80;47.50
21682;DHT22;11002;48.256;10.084;2022-09-09T03:21:32;19.80;47.50
21682;DHT22;11002;48.256;10.084;2022-09-09T03:24:00;19.80;47.40
21682;DHT22;11002;48.256;10.084;2022-09-09T03:26:29;19.80;47.40
21682;DHT22;11002;48.256;10.084;2022-09-09T03:28:58;19.80;47.50
21682;DHT22;11002;48.256;10.084;2022-09-09T03:31:28;19.80;47.40
21682;DHT22;11002;48.256;10.084;2022-09-09T03:33:57;19.80;47.40
21682;DHT22;11002;48.256;10.084;2022-09-09T03:36:27;19.80;47.40
21682;DHT22;11002;48.256;10.084;2022-09-09T03:38:55;19.80;47.40
21682;DHT22;11002;48.256;10.084;2022-09-09T03:41:25;19.80;47.40
21682;DHT22;11002;48.256;10.084;2022-09-09T03:43:53;19.80;47.30
21682;DHT22;11002;48.256;10.084;2022-09-09T03:46:24;19.80;47.30
21682;DHT22;11002;48.256;10.084;2022-09-09T03:48:54;19.80;47.30
21682;DHT22;11002;48.256;10.084;2022-09-09T03:51:21;19.80;47.30
21682;DHT22;11002;48.256;10.084;2022-09-09T03:53:48;19.80;47.40
21682;DHT22;11002;48.256;10.084;2022-09-09T03:56:16;19.80;47.20
21682;DHT22;11002;48.256;10.084;2022-09-09T03:58:43;19.80;47.30
21682;DHT22;11002;48.256;10.084;2022-09-09T04:01:13;19.80;47.30
21682;DHT22;11002;48.256;10.084;2022-09-09T04:03:43;19.80;47.30
21682;DHT22;11002;48.256;10.084;2022-09-09T04:06:14;19.80;47.20
21682;DHT22;11002;48.256;10.084;2022-09-09T04:08:44;19.70;47.20
21682;DHT22;11002;48.256;10.084;2022-09-09T04:11:14;19.80;47.20
21682;DHT22;11002;48.256;10.084;2022-09-09T04:13:43;19.80;47.20
21682;DHT22;11002;48.256;10.084;2022-09-09T04:16:13;19.80;47.30
21682;DHT22;11002;48.256;10.084;2022-09-09T04:18:42;19.80;47.30
21682;DHT22;11002;48.256;10.084;2022-09-09T04:21:10;19.80;47.40
21682;DHT22;11002;48.256;10.084;2022-09-09T04:23:40;19.80;47.30
21682;DHT22;11002;48.256;10.084;2022-09-09T04:26:08;19.80;47.30
21682;DHT22;11002;48.256;10.084;2022-09-09T04:28:37;19.80;47.20
21682;DHT22;11002;48.256;10.084;2022-09-09T04:31:14;19.80;47.30
21682;DHT22;11002;48.256;10.084;2022-09-09T04:33:43;19.80;47.20
21682;DHT22;11002;48.256;10.084;2022-09-09T04:36:11;19.80;47.30
21682;DHT22;11002;48.256;10.084;2022-09-09T04:38:40;19.80;47.20
21682;DHT22;11002;48.256;10.084;2022-09-09T04:41:08;19.80;47.20
21682;DHT22;11002;48.256;10.084;2022-09-09T04:43:38;19.80;47.20
21682;DHT22;11002;48.256;10.084;2022-09-09T04:46:07;19.70;47.10
21682;DHT22;11002;48.256;10.084;2022-09-09T04:48:35;19.80;47.30
21682;DHT22;11002;48.256;10.084;2022-09-09T04:51:05;19.80;47.30
21682;DHT22;11002;48.256;10.084;2022-09-09T04:53:33;19.80;47.30
21682;DHT22;11002;48.256;10.084;2022-09-09T04:56:04;19.70;47.10
21682;DHT22;11002;48.256;10.084;2022-09-09T04:58:35;19.80;47.20
21682;DHT22;11002;48.256;10.084;2022-09-09T05:01:06;19.70;47.10
21682;DHT22;11002;48.256;10.084;2022-09-09T05:03:34;19.80;47.20
21682;DHT22;11002;48.256;10.084;2022-09-09T05:06:06;19.80;47.20
21682;DHT22;11002;48.256;10.084;2022-09-09T05:08:36;19.70;47.10
21682;DHT22;11002;48.256;10.084;2022-09-09T05:11:13;19.80;47.20
21682;DHT22;11002;48.256;10.084;2022-09-09T05:13:41;19.80;47.20
21682;DHT22;11002;48.256;10.084;2022-09-09T05:16:09;19.70;47.10
21682;DHT22;11002;48.256;10.084;2022-09-09T05:18:37;19.80;47.20
21682;DHT22;11002;48.256;10.084;2022-09-09T05:21:06;19.70;47.10
21682;DHT22;11002;48.256;10.084;2022-09-09T05:23:33;19.70;47.10
21682;DHT22;11002;48.256;10.084;2022-09-09T05:26:02;19.70;47.10
21682;DHT22;11002;48.256;10.084;2022-09-09T05:28:33;19.70;47.10
21682;DHT22;11002;48.256;10.084;2022-09-09T05:31:02;19.70;47.10
21682;DHT22;11002;48.256;10.084;2022-09-09T05:33:32;19.70;47.00
21682;DHT22;11002;48.256;10.084;2022-09-09T05:36:02;19.70;47.00
21682;DHT22;11002;48.256;10.084;2022-09-09T05:38:30;19.70;47.00
21682;DHT22;11002;48.256;10.084;2022-09-09T05:40:59;19.70;47.10
21682;DHT22;11002;48.256;10.084;2022-09-09T05:43:31;19.70;47.00
21682;DHT22;11002;48.256;10.084;2022-09-09T05:46:00;19.70;47.00
21682;DHT22;11002;48.256;10.084;2022-09-09T05:48:33;19.70;47.00
21682;DHT22;11002;48.256;10.084;2022-09-09T05:51:02;19.80;47.20
21682;DHT22;11002;48.256;10.084;2022-09-09T05:53:30;19.70;47.00
21682;DHT22;11002;48.256;10.084;2022-09-09T05:56:01;19.70;47.10
21682;DHT22;11002;48.256;10.084;2022-09-09T05:58:34;19.70;47.00
21682;DHT22;11002;48.256;10.084;2022-09-09T06:01:06;19.70;47.00
21682;DHT22;11002;48.256;10.084;2022-09-09T06:03:34;19.70;47.80
21682;DHT22;11002;48.256;10.084;2022-09-09T06:06:04;19.70;47.00
21682;DHT22;11002;48.256;10.084;2022-09-09T06:08:33;19.80;47.20
21682;DHT22;11002;48.256;10.084;2022-09-09T06:11:05;19.70;47.10
21682;DHT22;11002;48.256;10.084;2022-09-09T06:13:34;19.70;47.10
21682;DHT22;11002;48.256;10.084;2022-09-09T06:16:03;19.70;47.10
21682;DHT22;11002;48.256;10.084;2022-09-09T06:18:30;19.70;47.00
21682;DHT22;11002;48.256;10.084;2022-09-09T06:21:01;19.70;47.00
21682;DHT22;11002;48.256;10.084;2022-09-09T06:23:31;19.70;47.10
21682;DHT22;11002;48.256;10.084;2022-09-09T06:26:06;19.70;47.00
21682;DHT22;11002;48.256;10.084;2022-09-09T06:28:36;19.70;47.10
21682;DHT22;11002;48.256;10.084;2022-09-09T06:31:05;19.70;47.00
21682;DHT22;11002;48.256;10.084;2022-09-09T06:33:35;19.70;47.00
21682;DHT22;11002;48.256;10.084;2022-09-09T06:36:10;19.70;47.10
21682;DHT22;11002;48.256;10.084;2022-09-09T06:38:38;19.70;47.10
21682;DHT22;11002;48.256;10.084;2022-09-09T06:41:05;19.70;47.10
21682;DHT22;11002;48.256;10.084;2022-09-09T06:43:33;19.70;47.10
21682;DHT22;11002;48.256;10.084;2022-09-09T06:46:04;19.70;47.10
21682;DHT22;11002;48.256;10.084;2022-09-09T06:48:33;19.70;47.10
21682;DHT22;11002;48.256;10.084;2022-09-09T06:51:02;19.70;47.10
21682;DHT22;11002;48.256;10.084;2022-09-09T06:53:30;19.70;47.00
21682;DHT22;11002;48.256;10.084;2022-09-09T06:56:00;19.70;47.00
21682;DHT22;11002;48.256;10.084;2022-09-09T06:58:29;19.70;47.80
21682;DHT22;11002;48.256;10.084;2022-09-09T07:01:12;19.70;47.70
21682;DHT22;11002;48.256;10.084;2022-09-09T07:03:46;19.70;47.10
21682;DHT22;11002;48.256;10.084;2022-09-09T07:06:15;19.70;47.00
21682;DHT22;11002;48.256;10.084;2022-09-09T07:08:49;19.70;47.00
21682;DHT22;11002;48.256;10.084;2022-09-09T07:11:18;19.70;47.00
21682;DHT22;11002;48.256;10.084;2022-09-09T07:13:46;19.70;47.10
21682;DHT22;11002;48.256;10.084;2022-09-09T07:16:17;19.70;47.70
21682;DHT22;11002;48.256;10.084;2022-09-09T07:18:45;19.70;47.00
21682;DHT22;11002;48.256;10.084;2022-09-09T07:21:13;19.70;47.00
21682;DHT22;11002;48.256;10.084;2022-09-09T07:23:41;19.70;47.10
21682;DHT22;11002;48.256;10.084;2022-09-09T07:26:10;19.70;47.00
21682;DHT22;11002;48.256;10.084;2022-09-09T07:28:38;19.70;47.00
21682;DHT22;11002;48.256;10.084;2022-09-09T07:31:06;19.70;47.10
21682;DHT22;11002;48.256;10.084;2022-09-09T07:33:35;19.70;47.10
21682;DHT22;11002;48.256;10.084;2022-09-09T07:36:06;19.70;47.00
21682;DHT22;11002;48.256;10.084;2022-09-09T07:38:38;19.70;47.10
21682;DHT22;11002;48.256;10.084;2022-09-09T07:41:07;19.70;47.10
21682;DHT22;11002;48.256;10.084;2022-09-09T07:43:39;19.70;47.00
21682;DHT22;11002;48.256;10.084;2022-09-09T07:46:08;19.70;47.10
21682;DHT22;11002;48.256;10.084;2022-09-09T07:48:37;19.70;47.00
21682;DHT22;11002;48.256;10.084;2022-09-09T07:51:07;19.70;47.10
21682;DHT22;11002;48.256;10.084;2022-09-09T07:53:35;19.70;47.10
21682;DHT22;11002;48.256;10.084;2022-09-09T07:56:06;19.70;47.00
21682;DHT22;11002;48.256;10.084;2022-09-09T07:58:36;19.70;47.10
21682;DHT22;11002;48.256;10.084;2022-09-09T08:01:08;19.70;47.10
21682;DHT22;11002;48.256;10.084;2022-09-09T08:03:38;19.70;47.10
21682;DHT22;11002;48.256;10.084;2022-09-09T08:06:07;19.70;47.10
21682;DHT22;11002;48.256;10.084;2022-09-09T08:08:36;19.70;47.10
21682;DHT22;11002;48.256;10.084;2022-09-09T08:11:07;19.70;47.10
21682;DHT22;11002;48.256;10.084;2022-09-09T08:13:35;19.70;47.10
21682;DHT22;11002;48.256;10.084;2022-09-09T08:16:07;19.70;47.20
21682;DHT22;11002;48.256;10.084;2022-09-09T08:18:37;19.70;47.30
21682;DHT22;11002;48.256;10.084;2022-09-09T08:21:09;19.70;47.10
21682;DHT22;11002;48.256;10.084;2022-09-09T08:23:38;19.70;47.10
21682;DHT22;11002;48.256;10.084;2022-09-09T08:26:10;19.70;47.10
21682;DHT22;11002;48.256;10.084;2022-09-09T08:28:38;19.70;47.00
21682;DHT22;11002;48.256;10.084;2022-09-09T08:31:11;19.70;47.10
21682;DHT22;11002;48.256;10.084;2022-09-09T08:33:42;19.70;47.10
21682;DHT22;11002;48.256;10.084;2022-09-09T08:36:13;19.70;47.10
21682;DHT22;11002;48.256;10.084;2022-09-09T08:38:41;19.70;47.10
21682;DHT22;11002;48.256;10.084;2022-09-09T08:41:57;19.70;47.10
21682;DHT22;11002;48.256;10.084;2022-09-09T08:44:45;19.70;47.20
21682;DHT22;11002;48.256;10.084;2022-09-09T08:47:25;19.70;47.10
21682;DHT22;11002;48.256;10.084;2022-09-09T08:50:17;19.70;47.00
21682;DHT22;11002;48.256;10.084;2022-09-09T08:52:54;19.70;47.00
21682;DHT22;11002;48.256;10.084;2022-09-09T08:55:34;19.70;47.00
21682;DHT22;11002;48.256;10.084;2022-09-09T08:58:12;19.70;47.10
21682;DHT22;11002;48.256;10.084;2022-09-09T09:00:52;19.70;47.00
21682;DHT22;11002;48.256;10.084;2022-09-09T09:03:30;19.70;47.10
21682;DHT22;11002;48.256;10.084;2022-09-09T09:06:08;19.70;47.10
21682;DHT22;11002;48.256;10.084;2022-09-09T09:08:43;19.70;47.10
21682;DHT22;11002;48.256;10.084;2022-09-09T09:11:13;19.70;47.10
21682;DHT22;11002;48.256;10.084;2022-09-09T09:13:45;19.70;47.10
21682;DHT22;11002;48.256;10.084;2022-09-09T09:16:18;19.70;47.10
21682;DHT22;11002;48.256;10.084;2022-09-09T09:18:47;19.70;47.10
21682;DHT22;11002;48.256;10.084;2022-09-09T09:21:17;19.70;47.00
21682;DHT22;11002;48.256;10.084;2022-09-09T09:23:53;19.70;47.10
21682;DHT22;11002;48.256;10.084;2022-09-09T09:26:25;19.70;47.10
21682;DHT22;11002;48.256;10.084;2022-09-09T09:28:55;19.70;47.10
21682;DHT22;11002;48.256;10.084;2022-09-09T09:31:23;19.70;47.10
21682;DHT22;11002;48.256;10.084;2022-09-09T09:33:54;19.70;47.10
21682;DHT22;11002;48.256;10.084;2022-09-09T09:36:34;19.70;47.10
21682;DHT22;11002;48.256;10.084;2022-09-09T09:39:05;19.70;47.10
21682;DHT22;11002;48.256;10.084;2022-09-09T09:41:35;19.70;47.00
21682;DHT22;11002;48.256;10.084;2022-09-09T09:44:06;19.70;47.00
21682;DHT22;11002;48.256;10.084;2022-09-09T09:46:47;19.70;47.00
21682;DHT22;11002;48.256;10.084;2022-09-09T09:49:15;19.70;47.00
21682;DHT22;11002;48.256;10.084;2022-09-09T09:51:45;19.70;47.00
21682;DHT22;11002;48.256;10.084;2022-09-09T09:54:22;19.70;47.00
21682;DHT22;11002;48.256;10.084;2022-09-09T09:56:56;19.70;47.00
21682;DHT22;11002;48.256;10.084;2022-09-09T09:59:35;19.80;47.20
21682;DHT22;11002;48.256;10.084;2022-09-09T10:02:26;19.70;47.00
21682;DHT22;11002;48.256;10.084;2022-09-09T10:05:03;19.70;47.00
21682;DHT22;11002;48.256;10.084;2022-09-09T10:07:35;19.70;46.90
21682;DHT22;11002;48.256;10.084;2022-09-09T10:10:04;19.70;47.00
21682;DHT22;11002;48.256;10.084;2022-09-09T10:12:40;19.70;47.00
21682;DHT22;11002;48.256;10.084;2022-09-09T10:15:24;19.70;47.00
21682;DHT22;11002;48.256;10.084;2022-09-09T10:17:59;19.70;47.00
21682;DHT22;11002;48.256;10.084;2022-09-09T10:20:36;19.80;47.00
21682;DHT22;11002;48.256;10.084;2022-09-09T10:23:17;19.70;46.90
21682;DHT22;11002;48.256;10.084;2022-09-09T10:26:07;19.70;46.90
21682;DHT22;11002;48.256;10.084;2022-09-09T10:28:55;19.70;46.90
21682;DHT22;11002;48.256;10.084;2022-09-09T10:31:33;19.70;46.90
21682;DHT22;11002;48.256;10.084;2022-09-09T10:34:15;19.70;46.90
21682;DHT22;11002;48.256;10.084;2022-09-09T10:36:48;19.80;47.00
21682;DHT22;11002;48.256;10.084;2022-09-09T10:39:30;19.80;46.90
21682;DHT22;11002;48.256;10.084;2022-09-09T10:42:04;19.80;47.00
21682;DHT22;11002;48.256;10.084;2022-09-09T10:44:52;19.80;46.90
21682;DHT22;11002;48.256;10.084;2022-09-09T10:47:39;19.80;46.90
21682;DHT22;11002;48.256;10.084;2022-09-09T10:50:28;19.80;46.90
21682;DHT22;11002;48.256;10.084;2022-09-09T10:53:02;19.80;46.90
21682;DHT22;11002;48.256;10.084;2022-09-09T10:55:37;19.80;46.90
21682;DHT22;11002;48.256;10.084;2022-09-09T10:58:09;19.80;46.90
21682;DHT22;11002;48.256;10.084;2022-09-09T11:00:40;19.80;46.90
21682;DHT22;11002;48.256;10.084;2022-09-09T11:03:20;19.80;46.90
21682;DHT22;11002;48.256;10.084;2022-09-09T11:05:51;19.90;47.00
21682;DHT22;11002;48.256;10.084;2022-09-09T11:08:21;19.80;46.90
21682;DHT22;11002;48.256;10.084;2022-09-09T11:10:53;19.80;46.90
21682;DHT22;11002;48.256;10.084;2022-09-09T11:13:26;19.80;46.90
21682;DHT22;11002;48.256;10.084;2022-09-09T11:16:04;19.80;46.90
21682;DHT22;11002;48.256;10.084;2022-09-09T11:18:35;19.80;46.90
21682;DHT22;11002;48.256;10.084;2022-09-09T11:21:12;19.80;46.90
21682;DHT22;11002;48.256;10.084;2022-09-09T11:23:43;19.90;47.00
21682;DHT22;11002;48.256;10.084;2022-09-09T11:26:17;19.90;47.30
21682;DHT22;11002;48.256;10.084;2022-09-09T11:28:55;19.90;47.00
21682;DHT22;11002;48.256;10.084;2022-09-09T11:31:43;19.90;47.10
21682;DHT22;11002;48.256;10.084;2022-09-09T11:34:27;19.80;46.90
21682;DHT22;11002;48.256;10.084;2022-09-09T11:37:20;19.90;47.10
21682;DHT22;11002;48.256;10.084;2022-09-09T11:40:19;19.90;47.00
21682;DHT22;11002;48.256;10.084;2022-09-09T11:43:02;19.90;47.10
21682;DHT22;11002;48.256;10.084;2022-09-09T11:45:31;19.90;47.10
21682;DHT22;11002;48.256;10.084;2022-09-09T11:48:02;19.90;47.20
21682;DHT22;11002;48.256;10.084;2022-09-09T11:50:36;19.90;47.30
21682;DHT22;11002;48.256;10.084;2022-09-09T11:53:16;19.90;47.70
21682;DHT22;11002;48.256;10.084;2022-09-09T11:55:47;19.90;48.10
21682;DHT22;11002;48.256;10.084;2022-09-09T11:58:17;19.90;48.10
21682;DHT22;11002;48.256;10.084;2022-09-09T12:00:47;19.90;48.10
21682;DHT22;11002;48.256;10.084;2022-09-09T12:03:35;19.90;48.10
21682;DHT22;11002;48.256;10.084;2022-09-09T12:06:15;19.90;48.10
21682;DHT22;11002;48.256;10.084;2022-09-09T12:08:47;19.90;48.10
21682;DHT22;11002;48.256;10.084;2022-09-09T12:11:25;19.90;48.10
21682;DHT22;11002;48.256;10.084;2022-09-09T12:13:55;19.90;48.10
21682;DHT22;11002;48.256;10.084;2022-09-09T12:16:32;19.90;48.10
21682;DHT22;11002;48.256;10.084;2022-09-09T12:19:13;19.90;48.10
21682;DHT22;11002;48.256;10.084;2022-09-09T12:21:46;19.90;48.10
21682;DHT22;11002;48.256;10.084;2022-09-09T12:24:16;19.90;48.10
21682;DHT22;11002;48.256;10.084;2022-09-09T12:26:53;19.90;48.10
21682;DHT22;11002;48.256;10.084;2022-09-09T12:29:28;19.90;48.10
21682;DHT22;11002;48.256;10.084;2022-09-09T12:32:03;19.90;48.20
21682;DHT22;11002;48.256;10.084;2022-09-09T12:34:39;19.90;48.10
21682;DHT22;11002;48.256;10.084;2022-09-09T12:37:15;19.90;48.20
21682;DHT22;11002;48.256;10.084;2022-09-09T12:39:49;19.90;48.10
21682;DHT22;11002;48.256;10.084;2022-09-09T12:42:20;19.90;48.20
21682;DHT22;11002;48.256;10.084;2022-09-09T12:44:54;19.90;48.10
21682;DHT22;11002;48.256;10.084;2022-09-09T12:47:23;19.90;48.10
21682;DHT22;11002;48.256;10.084;2022-09-09T12:49:52;19.90;48.10
21682;DHT22;11002;48.256;10.084;2022-09-09T12:52:27;19.90;48.10
21682;DHT22;11002;48.256;10.084;2022-09-09T12:54:59;19.90;48.10
21682;DHT22;11002;48.256;10.084;2022-09-09T12:57:35;20.00;48.90
21682;DHT22;11002;48.256;10.084;2022-09-09T13:00:15;20.00;48.90
21682;DHT22;11002;48.256;10.084;2022-09-09T13:02:51;20.00;48.20
21682;DHT22;11002;48.256;10.084;2022-09-09T13:05:22;20.00;48.20
21682;DHT22;11002;48.256;10.084;2022-09-09T13:07:49;19.90;48.10
21682;DHT22;11002;48.256;10.084;2022-09-09T13:10:23;20.00;48.20
21682;DHT22;11002;48.256;10.084;2022-09-09T13:12:52;20.00;48.20
21682;DHT22;11002;48.256;10.084;2022-09-09T13:15:23;20.00;48.20
21682;DHT22;11002;48.256;10.084;2022-09-09T13:17:55;20.00;48.30
21682;DHT22;11002;48.256;10.084;2022-09-09T13:20:23;20.00;48.20
21682;DHT22;11002;48.256;10.084;2022-09-09T13:22:53;20.00;48.20
21682;DHT22;11002;48.256;10.084;2022-09-09T13:25:23;20.00;48.20
21682;DHT22;11002;48.256;10.084;2022-09-09T13:27:56;20.00;48.20
21682;DHT22;11002;48.256;10.084;2022-09-09T13:30:28;20.00;48.20
21682;DHT22;11002;48.256;10.084;2022-09-09T13:33:19;20.00;48.30
21682;DHT22;11002;48.256;10.084;2022-09-09T13:35:50;20.00;48.20
21682;DHT22;11002;48.256;10.084;2022-09-09T13:38:19;20.00;48.20
21682;DHT22;11002;48.256;10.084;2022-09-09T13:40:57;20.00;48.20
21682;DHT22;11002;48.256;10.084;2022-09-09T13:43:28;20.00;48.30
21682;DHT22;11002;48.256;10.084;2022-09-09T13:45:59;20.00;48.20
21682;DHT22;11002;48.256;10.084;2022-09-09T13:48:27;20.00;48.20
21682;DHT22;11002;48.256;10.084;2022-09-09T13:50:57;20.00;48.20
21682;DHT22;11002;48.256;10.084;2022-09-09T13:53:25;20.00;48.20
21682;DHT22;11002;48.256;10.084;2022-09-09T13:55:53;20.00;48.30
21682;DHT22;11002;48.256;10.084;2022-09-09T13:58:20;20.00;48.30
21682;DHT22;11002;48.256;10.084;2022-09-09T14:00:49;20.00;48.20
21682;DHT22;11002;48.256;10.084;2022-09-09T14:03:18;20.00;48.20
21682;DHT22;11002;48.256;10.084;2022-09-09T14:05:46;20.00;48.20
21682;DHT22;11002;48.256;10.084;2022-09-09T14:08:20;20.00;48.20
21682;DHT22;11002;48.256;10.084;2022-09-09T14:10:48;20.00;48.30
21682;DHT22;11002;48.256;10.084;2022-09-09T14:13:16;20.00;48.20
21682;DHT22;11002;48.256;10.084;2022-09-09T14:15:43;20.00;48.20
21682;DHT22;11002;48.256;10.084;2022-09-09T14:18:12;20.00;48.20
21682;DHT22;11002;48.256;10.084;2022-09-09T14:20:41;20.00;48.20
21682;DHT22;11002;48.256;10.084;2022-09-09T14:23:11;20.00;48.20
21682;DHT22;11002;48.256;10.084;2022-09-09T14:25:42;20.00;48.20
21682;DHT22;11002;48.256;10.084;2022-09-09T14:28:11;20.00;48.20
21682;DHT22;11002;48.256;10.084;2022-09-09T14:30:40;20.00;48.20
21682;DHT22;11002;48.256;10.084;2022-09-09T14:33:11;20.00;48.30
21682;DHT22;11002;48.256;10.084;2022-09-09T14:35:40;20.00;48.20
21682;DHT22;11002;48.256;10.084;2022-09-09T14:38:08;20.00;48.20
21682;DHT22;11002;48.256;10.084;2022-09-09T14:40:36;20.00;48.20
21682;DHT22;11002;48.256;10.084;2022-09-09T14:43:04;20.00;48.30
21682;DHT22;11002;48.256;10.084;2022-09-09T14:45:32;20.00;48.20
21682;DHT22;11002;48.256;10.084;2022-09-09T14:48:00;20.00;48.30
21682;DHT22;11002;48.256;10.084;2022-09-09T14:50:27;20.00;48.20
21682;DHT22;11002;48.256;10.084;2022-09-09T14:52:55;20.00;48.20
21682;DHT22;11002;48.256;10.084;2022-09-09T14:55:23;20.00;48.30
21682;DHT22;11002;48.256;10.084;2022-09-09T14:57:50;20.00;48.20
21682;DHT22;11002;48.256;10.084;2022-09-09T15:00:18;20.00;48.20
21682;DHT22;11002;48.256;10.084;2022-09-09T15:02:45;20.00;48.20
21682;DHT22;11002;48.256;10.084;2022-09-09T15:05:13;20.00;48.20
21682;DHT22;11002;48.256;10.084;2022-09-09T15:07:41;20.00;48.20
21682;DHT22;11002;48.256;10.084;2022-09-09T15:10:09;20.00;48.30
21682;DHT22;11002;48.256;10.084;2022-09-09T15:12:37;20.00;48.20
21682;DHT22;11002;48.256;10.084;2022-09-09T15:15:05;20.00;48.20
21682;DHT22;11002;48.256;10.084;2022-09-09T15:17:32;20.00;48.30
21682;DHT22;11002;48.256;10.084;2022-09-09T15:20:00;20.00;48.20
21682;DHT22;11002;48.256;10.084;2022-09-09T15:22:27;20.00;48.30
21682;DHT22;11002;48.256;10.084;2022-09-09T15:24:55;20.00;48.20
21682;DHT22;11002;48.256;10.084;2022-09-09T15:27:23;20.00;48.20
21682;DHT22;11002;48.256;10.084;2022-09-09T15:29:51;20.00;48.20
21682;DHT22;11002;48.256;10.084;2022-09-09T15:32:18;20.00;48.20
21682;DHT22;11002;48.256;10.084;2022-09-09T15:34:45;20.00;48.20
21682;DHT22;11002;48.256;10.084;2022-09-09T15:37:13;20.00;48.20
21682;DHT22;11002;48.256;10.084;2022-09-09T15:39:40;20.00;48.20
21682;DHT22;11002;48.256;10.084;2022-09-09T15:42:08;20.00;48.20
21682;DHT22;11002;48.256;10.084;2022-09-09T15:44:41;20.00;48.20
21682;DHT22;11002;48.256;10.084;2022-09-09T15:47:11;20.00;48.20
21682;DHT22;11002;48.256;10.084;2022-09-09T15:49:39;20.00;48.20
21682;DHT22;11002;48.256;10.084;2022-09-09T15:52:10;20.00;48.20